Time,TemperatureF,DewpointF,PressureIn,WindDirection,WindDirectionDegrees,WindSpeedMPH,WindSpeedGustMPH,Humidity,HourlyPrecipIn,Conditions,Clouds,dailyrainin,SoftwareType,DateUTC
2013-03-07 00:00:00,63.2,61.4,30.05,SW,230,0.0,0.0,94,0.00,,,0.00,WeatherCatV1.11B39,2013-03-07 10:00:00,
2013-03-07 00:05:00,63.2,61.4,30.05,SW,230,0.0,0.0,94,0.00,,,0.00,WeatherCatV1.11B39,2013-03-07 10:05:00,
2013-03-07 00:10:00,63.0,60.9,30.05,SW,230,0.0,0.0,93,0.00,,,0.00,WeatherCatV1.11B39,2013-03-07 10:10:00,
2013-03-07 00:15:00,62.7,60.9,30.05,SW,230,0.0,0.0,94,0.00,,,0.00,WeatherCatV1.11B39,2013-03-07 10:15:00,
2013-03-07 00:20:00,62.8,61.0,30.05,SW,230,0.0,0.0,94,0.00,,,0.00,WeatherCatV1.11B39,2013-03-07 10:20:00,
2013-03-07 00:25:00,62.8,61.0,30.05,SW,230,0.0,0.0,94,0.00,,,0.00,WeatherCatV1.11B39,2013-03-07 10:25:00,
2013-03-07 00:30:00,62.7,60.9,30.05,SW,230,0.0,0.0,94,0.00,,,0.00,WeatherCatV1.11B39,2013-03-07 10:30:00,
2013-03-07 00:35:00,62.8,61.0,30.04,SW,230,0.0,0.0,94,0.00,,,0.00,WeatherCatV1.11B39,2013-03-07 10:35:00,
2013-03-07 00:40:00,62.7,60.9,30.04,SW,230,0.0,0.0,94,0.00,,,0.00,WeatherCatV1.11B39,2013-03-07 10:40:00,
2013-03-07 00:45:00,62.4,60.6,30.04,SW,230,0.0,0.0,94,0.00,,,0.00,WeatherCatV1.11B39,2013-03-07 10:45:00,
2013-03-07 00:50:00,62.5,60.7,30.04,SW,230,0.0,0.0,94,0.00,,,0.00,WeatherCatV1.11B39,2013-03-07 10:50:00,
2013-03-07 00:55:00,62.5,60.7,30.04,SW,230,0.0,0.0,94,0.00,,,0.00,WeatherCatV1.11B39,2013-03-07 10:55:00,
2013-03-07 01:00:00,62.3,60.2,30.04,SW,230,0.0,0.0,93,0.00,,,0.00,WeatherCatV1.11B39,2013-03-07 11:00:00,
2013-03-07 01:05:00,62.0,59.9,30.03,SW,230,0.0,0.0,93,0.00,,,0.00,WeatherCatV1.11B39,2013-03-07 11:05:00,
2013-03-07 01:10:00,61.7,60.0,30.03,SW,230,0.0,0.0,94,0.00,,,0.00,WeatherCatV1.11B39,2013-03-07 11:10:00,
2013-03-07 01:15:00,61.6,59.9,30.03,SW,230,0.0,0.0,94,0.00,,,0.00,WeatherCatV1.11B39,2013-03-07 11:15:00,
2013-03-07 01:20:00,61.6,59.9,30.03,SW,230,0.0,0.0,94,0.00,,,0.00,WeatherCatV1.11B39,2013-03-07 11:20:00,
2013-03-07 01:25:00,61.9,60.4,30.03,SW,230,0.0,0.0,95,0.00,,,0.00,WeatherCatV1.11B39,2013-03-07 11:25:00,
2013-03-07 01:30:00,61.9,60.4,30.03,SW,230,0.0,0.0,95,0.00,,,0.00,WeatherCatV1.11B39,2013-03-07 11:30:00,
2013-03-07 01:35:00,61.8,60.1,30.03,SW,230,0.0,0.0,94,0.00,,,0.00,WeatherCatV1.11B39,2013-03-07 11:35:00,
2013-03-07 01:40:00,61.5,59.8,30.02,East,98,0.0,0.0,94,0.00,,,0.00,WeatherCatV1.11B39,2013-03-07 11:40:00,
2013-03-07 01:45:00,61.3,59.6,30.02,East,98,0.0,0.0,94,0.00,,,0.00,WeatherCatV1.11B39,2013-03-07 11:45:00,
2013-03-07 01:50:00,61.2,59.8,30.02,East,98,0.0,0.0,95,0.00,,,0.00,WeatherCatV1.11B39,2013-03-07 11:50:00,
2013-03-07 01:55:00,61.6,60.4,30.01,East,98,0.0,0.0,96,0.00,,,0.00,WeatherCatV1.11B39,2013-03-07 11:55:00,
2013-03-07 02:00:00,61.8,60.3,30.01,East,101,0.0,0.0,95,0.00,,,0.00,WeatherCatV1.11B39,2013-03-07 12:00:00,
2013-03-07 02:05:00,61.8,60.3,30.01,East,101,0.0,0.0,95,0.00,,,0.00,WeatherCatV1.11B39,2013-03-07 12:05:00,
2013-03-07 02:10:00,61.8,60.3,30.01,ESE,102,0.0,0.0,95,0.00,,,0.00,WeatherCatV1.11B39,2013-03-07 12:10:00,
2013-03-07 02:15:00,61.9,60.4,30.01,ESE,102,0.0,0.0,95,0.00,,,0.00,WeatherCatV1.11B39,2013-03-07 12:15:00,
2013-03-07 02:20:00,62.1,60.6,30.00,ESE,106,0.0,0.0,95,0.00,,,0.00,WeatherCatV1.11B39,2013-03-07 12:20:00,
2013-03-07 02:25:00,62.3,60.5,30.00,ESE,113,0.0,0.0,94,0.00,,,0.00,WeatherCatV1.11B39,2013-03-07 12:25:00,
2013-03-07 02:30:00,62.2,60.4,30.00,ESE,113,0.0,0.0,94,0.00,,,0.00,WeatherCatV1.11B39,2013-03-07 12:30:00,
2013-03-07 02:35:00,62.1,60.3,30.00,ESE,110,0.0,0.0,94,0.00,,,0.00,WeatherCatV1.11B39,2013-03-07 12:35:00,
2013-03-07 02:40:00,62.0,60.5,30.00,ESE,110,0.0,0.0,95,0.00,,,0.00,WeatherCatV1.11B39,2013-03-07 12:40:00,
2013-03-07 02:45:00,62.1,60.6,29.99,ESE,111,0.0,0.0,95,0.00,,,0.00,WeatherCatV1.11B39,2013-03-07 12:45:00,
2013-03-07 02:50:00,62.2,60.7,29.99,ESE,111,0.0,0.0,95,0.00,,,0.00,WeatherCatV1.11B39,2013-03-07 12:50:00,
2013-03-07 02:55:00,62.3,60.8,29.99,ESE,111,0.0,0.0,95,0.00,,,0.00,WeatherCatV1.11B39,2013-03-07 12:55:00,
2013-03-07 03:00:00,62.5,61.0,29.99,ESE,111,0.0,0.0,95,0.00,,,0.00,WeatherCatV1.11B39,2013-03-07 13:00:00,
2013-03-07 03:05:00,62.6,61.1,29.99,ESE,111,0.0,0.0,95,0.00,,,0.00,WeatherCatV1.11B39,2013-03-07 13:05:00,
2013-03-07 03:15:00,62.9,61.4,29.98,ESE,111,0.0,0.0,95,0.00,,,0.00,WeatherCatV1.11B39,2013-03-07 13:15:00,
2013-03-07 03:20:00,62.9,61.4,29.98,ESE,111,0.0,0.0,95,0.00,,,0.00,WeatherCatV1.11B39,2013-03-07 13:20:00,
2013-03-07 03:25:00,63.0,61.5,29.98,ESE,111,0.0,0.0,95,0.00,,,0.00,WeatherCatV1.11B39,2013-03-07 13:25:00,
2013-03-07 03:30:00,63.0,61.5,29.98,ESE,111,0.0,0.0,95,0.00,,,0.00,WeatherCatV1.11B39,2013-03-07 13:30:00,
2013-03-07 03:35:00,62.9,61.1,29.98,ESE,111,0.0,0.0,94,0.00,,,0.00,WeatherCatV1.11B39,2013-03-07 13:35:00,
2013-03-07 03:40:00,62.8,61.0,29.98,ESE,111,0.0,0.0,94,0.00,,,0.00,WeatherCatV1.11B39,2013-03-07 13:40:00,
2013-03-07 03:45:00,62.6,60.8,29.98,ESE,111,0.0,0.0,94,0.00,,,0.00,WeatherCatV1.11B39,2013-03-07 13:45:00,
2013-03-07 03:50:00,62.6,61.1,29.97,ESE,112,0.0,0.0,95,0.00,,,0.00,WeatherCatV1.11B39,2013-03-07 13:50:00,
2013-03-07 03:55:00,62.7,61.2,29.97,ESE,112,0.0,0.0,95,0.00,,,0.00,WeatherCatV1.11B39,2013-03-07 13:55:00,
2013-03-07 04:00:00,62.5,60.7,29.97,ESE,112,0.0,0.0,94,0.00,,,0.00,WeatherCatV1.11B39,2013-03-07 14:00:00,
2013-03-07 04:05:00,62.3,60.5,29.97,ESE,112,0.0,0.0,94,0.00,,,0.00,WeatherCatV1.11B39,2013-03-07 14:05:00,
2013-03-07 04:10:00,62.1,60.6,29.97,ESE,111,0.0,0.0,95,0.00,,,0.00,WeatherCatV1.11B39,2013-03-07 14:10:00,
2013-03-07 04:15:00,62.1,60.6,29.97,ESE,111,0.0,0.0,95,0.00,,,0.00,WeatherCatV1.11B39,2013-03-07 14:15:00,
2013-03-07 04:20:00,61.9,60.4,29.97,ESE,111,0.0,0.0,95,0.00,,,0.00,WeatherCatV1.11B39,2013-03-07 14:20:00,
2013-03-07 04:25:00,61.8,60.3,29.97,ESE,111,0.0,0.0,95,0.00,,,0.00,WeatherCatV1.11B39,2013-03-07 14:25:00,
2013-03-07 04:30:00,61.7,60.2,29.97,ESE,111,0.0,0.0,95,0.00,,,0.00,WeatherCatV1.11B39,2013-03-07 14:30:00,
2013-03-07 04:35:00,61.5,60.1,29.97,ESE,111,0.0,0.0,95,0.00,,,0.00,WeatherCatV1.11B39,2013-03-07 14:35:00,
2013-03-07 04:40:00,61.7,60.5,29.97,South,172,0.0,0.0,96,0.00,,,0.00,WeatherCatV1.11B39,2013-03-07 14:40:00,
2013-03-07 04:45:00,61.8,60.6,29.97,South,172,0.0,0.0,96,0.00,,,0.00,WeatherCatV1.11B39,2013-03-07 14:45:00,
2013-03-07 04:50:00,61.8,60.6,29.97,South,172,0.0,0.0,96,0.00,,,0.00,WeatherCatV1.11B39,2013-03-07 14:50:00,
2013-03-07 04:55:00,61.7,60.5,29.97,South,172,0.0,0.0,96,0.00,,,0.00,WeatherCatV1.11B39,2013-03-07 14:55:00,
2013-03-07 05:00:00,61.7,60.5,29.97,South,172,0.0,0.0,96,0.00,,,0.00,WeatherCatV1.11B39,2013-03-07 15:00:00,
2013-03-07 05:05:00,61.7,60.5,29.97,South,171,0.0,0.0,96,0.00,,,0.00,WeatherCatV1.11B39,2013-03-07 15:05:00,
2013-03-07 05:10:00,61.7,60.5,29.97,South,171,0.0,0.0,96,0.00,,,0.00,WeatherCatV1.11B39,2013-03-07 15:10:00,
2013-03-07 05:15:00,62.0,60.8,29.97,South,172,0.0,0.0,96,0.00,,,0.00,WeatherCatV1.11B39,2013-03-07 15:15:00,
2013-03-07 05:20:00,62.2,61.0,29.97,South,172,0.0,0.0,96,0.00,,,0.00,WeatherCatV1.11B39,2013-03-07 15:20:00,
2013-03-07 05:25:00,62.4,61.2,29.97,South,172,0.0,0.0,96,0.00,,,0.00,WeatherCatV1.11B39,2013-03-07 15:25:00,
2013-03-07 05:30:00,62.3,60.8,29.97,South,172,0.0,0.0,95,0.00,,,0.00,WeatherCatV1.11B39,2013-03-07 15:30:00,
2013-03-07 05:35:00,62.2,60.7,29.98,South,172,0.0,0.0,95,0.00,,,0.00,WeatherCatV1.11B39,2013-03-07 15:35:00,
2013-03-07 05:40:00,62.1,60.6,29.98,South,172,0.0,0.0,95,0.00,,,0.00,WeatherCatV1.11B39,2013-03-07 15:40:00,
2013-03-07 05:45:00,62.0,60.5,29.98,South,172,0.0,0.0,95,0.00,,,0.00,WeatherCatV1.11B39,2013-03-07 15:45:00,
2013-03-07 05:50:00,61.9,60.4,29.98,South,172,0.0,0.0,95,0.00,,,0.00,WeatherCatV1.11B39,2013-03-07 15:50:00,
2013-03-07 05:55:00,61.8,60.3,29.98,South,172,0.0,0.0,95,0.00,,,0.00,WeatherCatV1.11B39,2013-03-07 15:55:00,
2013-03-07 06:00:00,61.8,60.3,29.98,South,172,0.0,0.0,95,0.00,,,0.00,WeatherCatV1.11B39,2013-03-07 16:00:00,
2013-03-07 06:05:00,61.7,60.2,29.98,South,172,0.0,0.0,95,0.00,,,0.00,WeatherCatV1.11B39,2013-03-07 16:05:00,
2013-03-07 06:10:00,61.7,60.5,29.98,South,171,0.0,0.0,96,0.00,,,0.00,WeatherCatV1.11B39,2013-03-07 16:10:00,
2013-03-07 06:15:00,61.7,60.5,29.98,South,169,0.0,0.0,96,0.00,,,0.00,WeatherCatV1.11B39,2013-03-07 16:15:00,
2013-03-07 06:20:00,61.7,60.5,29.98,SE,136,0.0,0.0,96,0.00,,,0.00,WeatherCatV1.11B39,2013-03-07 16:20:00,
2013-03-07 06:25:00,61.7,60.5,29.98,SE,136,0.0,0.0,96,0.00,,,0.00,WeatherCatV1.11B39,2013-03-07 16:25:00,
2013-03-07 06:30:00,61.9,60.7,29.98,SE,136,0.0,0.0,96,0.00,,,0.00,WeatherCatV1.11B39,2013-03-07 16:30:00,
2013-03-07 06:35:00,62.1,60.9,29.98,SE,136,0.0,0.0,96,0.00,,,0.00,WeatherCatV1.11B39,2013-03-07 16:35:00,
2013-03-07 06:40:00,62.1,60.9,29.99,SE,136,0.0,0.0,96,0.00,,,0.00,WeatherCatV1.11B39,2013-03-07 16:40:00,
2013-03-07 06:45:00,62.2,61.0,29.99,SE,136,0.0,0.0,96,0.00,,,0.00,WeatherCatV1.11B39,2013-03-07 16:45:00,
2013-03-07 06:50:00,62.3,61.1,29.99,SE,136,0.0,0.0,96,0.00,,,0.00,WeatherCatV1.11B39,2013-03-07 16:50:00,
2013-03-07 06:55:00,62.4,61.2,30.00,SE,136,0.0,0.0,96,0.00,,,0.00,WeatherCatV1.11B39,2013-03-07 16:55:00,
2013-03-07 07:00:00,62.5,61.3,30.00,SE,136,0.0,0.0,96,0.00,,,0.00,WeatherCatV1.11B39,2013-03-07 17:00:00,
2013-03-07 07:05:00,62.6,61.4,30.00,SE,136,0.0,0.0,96,0.00,,,0.01,WeatherCatV1.11B39,2013-03-07 17:05:00,
2013-03-07 07:10:00,62.8,61.9,30.00,SE,136,0.0,0.0,97,0.16,,,0.02,WeatherCatV1.11B39,2013-03-07 17:10:00,
2013-03-07 07:15:00,63.1,62.2,30.00,SE,136,0.0,0.0,97,0.13,,,0.03,WeatherCatV1.11B39,2013-03-07 17:15:00,
2013-03-07 07:20:00,63.5,62.6,30.00,SE,136,0.0,0.0,97,0.06,,,0.03,WeatherCatV1.11B39,2013-03-07 17:20:00,
2013-03-07 07:25:00,63.6,62.4,30.00,SE,136,0.0,0.0,96,0.04,,,0.03,WeatherCatV1.11B39,2013-03-07 17:25:00,
2013-03-07 07:30:00,63.5,62.3,30.00,SE,136,0.0,0.0,96,0.00,,,0.03,WeatherCatV1.11B39,2013-03-07 17:30:00,
2013-03-07 07:35:00,63.5,62.3,30.01,SE,136,0.0,0.0,96,0.00,,,0.03,WeatherCatV1.11B39,2013-03-07 17:35:00,
2013-03-07 07:40:00,63.7,62.5,30.01,SE,136,0.0,0.0,96,0.00,,,0.03,WeatherCatV1.11B39,2013-03-07 17:40:00,
2013-03-07 07:45:00,63.8,62.6,30.01,SE,136,0.0,0.0,96,0.00,,,0.03,WeatherCatV1.11B39,2013-03-07 17:45:00,
2013-03-07 07:50:00,63.9,62.7,30.01,SE,137,0.0,0.0,96,0.00,,,0.03,WeatherCatV1.11B39,2013-03-07 17:50:00,
2013-03-07 07:55:00,63.9,62.7,30.01,SE,136,0.0,0.0,96,0.00,,,0.03,WeatherCatV1.11B39,2013-03-07 17:55:00,
2013-03-07 08:00:00,64.1,62.9,30.01,SE,136,0.0,0.0,96,0.00,,,0.03,WeatherCatV1.11B39,2013-03-07 18:00:00,
2013-03-07 08:05:00,64.1,62.9,30.01,SE,136,0.0,0.0,96,0.00,,,0.03,WeatherCatV1.11B39,2013-03-07 18:05:00,
2013-03-07 08:10:00,64.3,63.4,30.01,East,98,0.0,0.0,97,0.00,,,0.03,WeatherCatV1.11B39,2013-03-07 18:10:00,
2013-03-07 08:15:00,64.5,63.6,30.02,East,98,0.0,0.0,97,0.00,,,0.03,WeatherCatV1.11B39,2013-03-07 18:15:00,
2013-03-07 08:20:00,64.7,63.8,30.02,SSE,167,0.0,0.0,97,0.00,,,0.03,WeatherCatV1.11B39,2013-03-07 18:20:00,
2013-03-07 08:25:00,64.7,63.5,30.02,East,91,0.0,0.0,96,0.00,,,0.03,WeatherCatV1.11B39,2013-03-07 18:25:00,
2013-03-07 08:30:00,65.0,63.8,30.02,East,86,0.0,0.0,96,0.00,,,0.03,WeatherCatV1.11B39,2013-03-07 18:30:00,
2013-03-07 08:35:00,65.2,64.0,30.02,ESE,105,0.0,0.0,96,0.00,,,0.03,WeatherCatV1.11B39,2013-03-07 18:35:00,
2013-03-07 08:40:00,65.5,64.0,30.02,ENE,60,0.0,0.0,95,0.00,,,0.03,WeatherCatV1.11B39,2013-03-07 18:40:00,
2013-03-07 08:50:00,66.0,64.2,30.02,ESE,116,0.0,0.0,94,0.00,,,0.03,WeatherCatV1.11B39,2013-03-07 18:50:00,
2013-03-07 08:55:00,66.3,64.5,30.02,East,98,0.0,0.0,94,0.00,,,0.03,WeatherCatV1.11B39,2013-03-07 18:55:00,
2013-03-07 09:00:00,66.4,64.3,30.02,East,85,0.0,0.0,93,0.00,,,0.03,WeatherCatV1.11B39,2013-03-07 19:00:00,
2013-03-07 09:05:00,66.4,63.7,30.02,East,101,1.0,6.0,91,0.00,,,0.03,WeatherCatV1.11B39,2013-03-07 19:05:00,
2013-03-07 09:10:00,66.6,63.9,30.03,ENE,58,2.0,2.0,91,0.00,,,0.03,WeatherCatV1.11B39,2013-03-07 19:10:00,
2013-03-07 09:15:00,66.8,64.4,30.03,East,89,1.0,2.0,92,0.00,,,0.03,WeatherCatV1.11B39,2013-03-07 19:15:00,
2013-03-07 09:20:00,67.0,64.6,30.03,NE,53,0.0,0.0,92,0.00,,,0.03,WeatherCatV1.11B39,2013-03-07 19:20:00,
2013-03-07 09:25:00,67.2,64.8,30.03,ENE,65,0.0,1.0,92,0.00,,,0.03,WeatherCatV1.11B39,2013-03-07 19:25:00,
2013-03-07 09:30:00,67.4,65.0,30.03,ENE,64,0.0,1.0,92,0.00,,,0.03,WeatherCatV1.11B39,2013-03-07 19:30:00,
2013-03-07 09:35:00,67.7,65.3,30.03,ESE,106,1.0,1.0,92,0.00,,,0.03,WeatherCatV1.11B39,2013-03-07 19:35:00,
2013-03-07 09:40:00,68.0,65.6,30.03,ESE,106,0.0,0.0,92,0.00,,,0.03,WeatherCatV1.11B39,2013-03-07 19:40:00,
2013-03-07 09:45:00,68.4,66.0,30.03,WSW,247,0.0,0.0,92,0.00,,,0.03,WeatherCatV1.11B39,2013-03-07 19:45:00,
2013-03-07 09:50:00,68.6,65.9,30.03,WSW,243,0.0,0.0,91,0.00,,,0.03,WeatherCatV1.11B39,2013-03-07 19:50:00,
2013-03-07 09:55:00,68.7,65.6,30.03,ENE,67,0.0,2.0,90,0.00,,,0.03,WeatherCatV1.11B39,2013-03-07 19:55:00,
2013-03-07 10:00:00,68.8,65.7,30.03,NNE,28,1.0,2.0,90,0.00,,,0.03,WeatherCatV1.11B39,2013-03-07 20:00:00,
2013-03-07 10:05:00,68.7,65.3,30.03,East,80,1.0,3.0,89,0.00,,,0.03,WeatherCatV1.11B39,2013-03-07 20:05:00,
2013-03-07 10:10:00,68.7,65.6,30.03,NE,43,3.0,3.0,90,0.00,,,0.03,WeatherCatV1.11B39,2013-03-07 20:10:00,
2013-03-07 10:15:00,68.7,65.3,30.02,East,101,1.0,3.0,89,0.00,,,0.03,WeatherCatV1.11B39,2013-03-07 20:15:00,
2013-03-07 10:20:00,68.6,64.9,30.03,East,89,1.0,2.0,88,0.00,,,0.03,WeatherCatV1.11B39,2013-03-07 20:20:00,
2013-03-07 10:25:00,68.8,64.8,30.02,ESE,103,1.0,7.0,87,0.00,,,0.03,WeatherCatV1.11B39,2013-03-07 20:25:00,
2013-03-07 10:30:00,68.9,64.5,30.02,East,94,0.0,5.0,86,0.00,,,0.03,WeatherCatV1.11B39,2013-03-07 20:30:00,
2013-03-07 10:35:00,69.2,64.8,30.02,ESE,110,1.0,4.0,86,0.00,,,0.03,WeatherCatV1.11B39,2013-03-07 20:35:00,
2013-03-07 10:40:00,69.4,65.4,30.02,NE,47,2.0,2.0,87,0.00,,,0.03,WeatherCatV1.11B39,2013-03-07 20:40:00,
2013-03-07 10:50:00,70.4,66.3,30.02,NE,55,0.0,3.0,87,0.00,,,0.03,WeatherCatV1.11B39,2013-03-07 20:50:00,
2013-03-07 10:55:00,70.8,66.7,30.02,NE,56,0.0,0.0,87,0.00,,,0.03,WeatherCatV1.11B39,2013-03-07 20:55:00,
2013-03-07 11:05:00,70.7,66.3,30.02,ENE,69,0.0,0.0,86,0.00,,,0.03,WeatherCatV1.11B39,2013-03-07 21:05:00,
2013-03-07 11:10:00,70.9,65.8,30.02,North,351,3.0,6.0,84,0.00,,,0.03,WeatherCatV1.11B39,2013-03-07 21:10:00,
2013-03-07 11:20:00,71.6,66.8,30.01,East,92,0.0,4.0,85,0.00,,,0.03,WeatherCatV1.11B39,2013-03-07 21:20:00,
2013-03-07 11:25:00,71.3,65.5,30.01,East,101,2.0,3.0,82,0.00,,,0.03,WeatherCatV1.11B39,2013-03-07 21:25:00,
2013-03-07 11:30:00,71.0,65.6,30.01,East,81,1.0,5.0,83,0.00,,,0.03,WeatherCatV1.11B39,2013-03-07 21:30:00,
2013-03-07 11:35:00,70.9,65.8,30.01,NNE,14,0.0,4.0,84,0.00,,,0.03,WeatherCatV1.11B39,2013-03-07 21:35:00,
2013-03-07 11:40:00,70.5,66.1,30.01,ENE,75,0.0,3.0,86,0.00,,,0.03,WeatherCatV1.11B39,2013-03-07 21:40:00,
2013-03-07 11:50:00,69.2,65.8,30.01,NE,35,3.0,4.0,89,0.00,,,0.03,WeatherCatV1.11B39,2013-03-07 21:50:00,
2013-03-07 11:55:00,68.6,65.9,30.01,NE,53,3.0,4.0,91,0.00,,,0.04,WeatherCatV1.11B39,2013-03-07 21:55:00,
2013-03-07 12:00:00,68.1,65.7,30.01,NE,51,3.0,4.0,92,0.27,,,0.06,WeatherCatV1.11B39,2013-03-07 22:00:00,
2013-03-07 12:05:00,67.8,65.4,30.01,ENE,78,2.0,3.0,92,0.09,,,0.07,WeatherCatV1.11B39,2013-03-07 22:05:00,
2013-03-07 12:10:00,67.7,65.6,30.00,ENE,67,1.0,2.0,93,0.31,,,0.09,WeatherCatV1.11B39,2013-03-07 22:10:00,
2013-03-07 12:15:00,67.5,65.4,30.00,ENE,72,1.0,3.0,93,0.11,,,0.10,WeatherCatV1.11B39,2013-03-07 22:15:00,
2013-03-07 12:20:00,67.4,65.6,30.00,ENE,78,0.0,0.0,94,0.11,,,0.10,WeatherCatV1.11B39,2013-03-07 22:20:00,
2013-03-07 12:25:00,67.6,65.8,30.00,ENE,65,0.0,0.0,94,0.06,,,0.11,WeatherCatV1.11B39,2013-03-07 22:25:00,
2013-03-07 12:30:00,67.9,66.1,30.00,ENE,77,0.0,0.0,94,0.06,,,0.11,WeatherCatV1.11B39,2013-03-07 22:30:00,
2013-03-07 12:35:00,68.1,66.3,29.99,East,95,0.0,0.0,94,0.06,,,0.11,WeatherCatV1.11B39,2013-03-07 22:35:00,
2013-03-07 12:45:00,68.4,66.3,29.99,NE,56,0.0,0.0,93,0.05,,,0.12,WeatherCatV1.11B39,2013-03-07 22:45:00,
2013-03-07 12:55:00,69.2,67.1,29.98,NE,55,0.0,0.0,93,0.04,,,0.12,WeatherCatV1.11B39,2013-03-07 22:55:00,
2013-03-07 13:00:00,69.3,67.5,29.98,NE,55,0.0,0.0,94,0.00,,,0.12,WeatherCatV1.11B39,2013-03-07 23:00:00,
2013-03-07 13:05:00,69.2,66.5,29.98,ENE,68,0.0,0.0,91,0.00,,,0.12,WeatherCatV1.11B39,2013-03-07 23:05:00,
2013-03-07 13:10:00,69.1,66.7,29.98,ESE,103,0.0,0.0,92,0.00,,,0.13,WeatherCatV1.11B39,2013-03-07 23:10:00,
2013-03-07 13:20:00,69.2,66.5,29.98,NNE,24,0.0,0.0,91,0.08,,,0.14,WeatherCatV1.11B39,2013-03-07 23:20:00,
2013-03-07 13:25:00,69.0,66.3,29.98,NE,48,0.0,0.0,91,0.05,,,0.14,WeatherCatV1.11B39,2013-03-07 23:25:00,
2013-03-07 13:30:00,69.1,66.7,29.97,NE,46,0.0,0.0,92,0.00,,,0.14,WeatherCatV1.11B39,2013-03-07 23:30:00,
2013-03-07 13:35:00,68.9,66.2,29.97,NNE,26,0.0,0.0,91,0.00,,,0.14,WeatherCatV1.11B39,2013-03-07 23:35:00,
2013-03-07 13:40:00,68.8,66.4,29.97,ENE,62,0.0,0.0,92,0.00,,,0.14,WeatherCatV1.11B39,2013-03-07 23:40:00,
2013-03-07 13:45:00,68.5,66.1,29.97,East,94,0.0,0.0,92,0.00,,,0.15,WeatherCatV1.11B39,2013-03-07 23:45:00,
2013-03-07 13:50:00,68.6,66.5,29.97,NNE,28,0.0,0.0,93,0.00,,,0.15,WeatherCatV1.11B39,2013-03-07 23:50:00,
2013-03-07 13:55:00,68.8,67.0,29.97,NNE,14,0.0,0.0,94,0.00,,,0.15,WeatherCatV1.11B39,2013-03-07 23:55:00,
2013-03-07 14:00:00,68.5,66.1,29.96,NW,324,0.0,0.0,92,0.00,,,0.15,WeatherCatV1.11B39,2013-03-08 00:00:00,
2013-03-07 14:10:00,68.6,66.5,29.96,NW,324,0.0,0.0,93,0.00,,,0.15,WeatherCatV1.11B39,2013-03-08 00:10:00,
2013-03-07 14:15:00,68.5,66.7,29.96,WSW,243,0.0,0.0,94,0.00,,,0.16,WeatherCatV1.11B39,2013-03-08 00:15:00,
2013-03-07 14:20:00,68.3,66.5,29.96,West,280,0.0,0.0,94,0.15,,,0.17,WeatherCatV1.11B39,2013-03-08 00:20:00,
2013-03-07 14:25:00,68.0,65.9,29.96,East,88,0.0,0.0,93,0.10,,,0.18,WeatherCatV1.11B39,2013-03-08 00:25:00,
2013-03-07 14:30:00,67.9,65.8,29.96,NNW,333,0.0,0.0,93,0.07,,,0.18,WeatherCatV1.11B39,2013-03-08 00:30:00,
2013-03-07 14:35:00,68.5,67.0,29.96,WNW,283,0.0,0.0,95,0.05,,,0.18,WeatherCatV1.11B39,2013-03-08 00:35:00,
2013-03-07 14:40:00,68.8,66.7,29.96,SW,236,0.0,0.0,93,0.00,,,0.18,WeatherCatV1.11B39,2013-03-08 00:40:00,
2013-03-07 14:45:00,68.3,65.6,29.95,NE,34,0.0,0.0,91,0.00,,,0.18,WeatherCatV1.11B39,2013-03-08 00:45:00,
2013-03-07 14:50:00,68.3,65.6,29.95,NE,34,0.0,0.0,91,0.00,,,0.18,WeatherCatV1.11B39,2013-03-08 00:50:00,
2013-03-07 14:55:00,68.0,64.6,29.95,NNE,29,0.0,0.0,89,0.00,,,0.18,WeatherCatV1.11B39,2013-03-08 00:55:00,
2013-03-07 15:00:00,67.8,64.4,29.95,East,82,0.0,0.0,89,0.00,,,0.18,WeatherCatV1.11B39,2013-03-08 01:00:00,
2013-03-07 15:05:00,67.9,64.9,29.95,NE,53,0.0,0.0,90,0.00,,,0.18,WeatherCatV1.11B39,2013-03-08 01:05:00,
2013-03-07 15:10:00,68.0,65.0,29.95,East,83,0.0,0.0,90,0.00,,,0.18,WeatherCatV1.11B39,2013-03-08 01:10:00,
2013-03-07 15:15:00,68.2,65.5,29.94,NE,41,0.0,0.0,91,0.00,,,0.18,WeatherCatV1.11B39,2013-03-08 01:15:00,
2013-03-07 15:20:00,68.9,66.5,29.94,East,98,1.0,1.0,92,0.00,,,0.18,WeatherCatV1.11B39,2013-03-08 01:20:00,
2013-03-07 15:25:00,69.1,65.7,29.94,East,101,1.0,3.0,89,0.00,,,0.18,WeatherCatV1.11B39,2013-03-08 01:25:00,
2013-03-07 15:30:00,69.2,65.5,29.94,NNE,14,1.0,2.0,88,0.00,,,0.18,WeatherCatV1.11B39,2013-03-08 01:30:00,
2013-03-07 15:35:00,69.7,66.3,29.94,East,87,2.0,2.0,89,0.00,,,0.18,WeatherCatV1.11B39,2013-03-08 01:35:00,
2013-03-07 15:45:00,70.0,65.6,29.94,East,96,1.0,2.0,86,0.00,,,0.18,WeatherCatV1.11B39,2013-03-08 01:45:00,
2013-03-07 15:50:00,69.9,65.8,29.94,ESE,106,0.0,1.0,87,0.00,,,0.18,WeatherCatV1.11B39,2013-03-08 01:50:00,
2013-03-07 15:55:00,69.8,65.7,29.94,East,79,0.0,1.0,87,0.00,,,0.18,WeatherCatV1.11B39,2013-03-08 01:55:00,
2013-03-07 16:00:00,69.6,66.2,29.94,East,97,0.0,1.0,89,0.00,,,0.18,WeatherCatV1.11B39,2013-03-08 02:00:00,
2013-03-07 16:05:00,69.2,65.5,29.94,ENE,68,0.0,1.0,88,0.00,,,0.18,WeatherCatV1.11B39,2013-03-08 02:05:00,
2013-03-07 16:10:00,69.1,65.4,29.94,East,101,0.0,1.0,88,0.00,,,0.18,WeatherCatV1.11B39,2013-03-08 02:10:00,
2013-03-07 16:15:00,69.2,65.8,29.94,ENE,78,0.0,1.0,89,0.00,,,0.18,WeatherCatV1.11B39,2013-03-08 02:15:00,
2013-03-07 16:20:00,69.6,66.2,29.94,NE,40,0.0,0.0,89,0.00,,,0.18,WeatherCatV1.11B39,2013-03-08 02:20:00,
2013-03-07 16:25:00,69.5,65.8,29.94,SSE,155,0.0,0.0,88,0.00,,,0.18,WeatherCatV1.11B39,2013-03-08 02:25:00,
2013-03-07 16:30:00,69.6,66.2,29.94,East,96,0.0,1.0,89,0.00,,,0.18,WeatherCatV1.11B39,2013-03-08 02:30:00,
2013-03-07 16:35:00,69.5,65.8,29.94,ESE,106,1.0,1.0,88,0.00,,,0.18,WeatherCatV1.11B39,2013-03-08 02:35:00,
2013-03-07 16:40:00,69.7,66.0,29.94,NE,46,0.0,2.0,88,0.00,,,0.18,WeatherCatV1.11B39,2013-03-08 02:40:00,
2013-03-07 16:45:00,69.7,65.6,29.94,East,86,1.0,2.0,87,0.00,,,0.18,WeatherCatV1.11B39,2013-03-08 02:45:00,
2013-03-07 16:50:00,69.8,65.4,29.94,ESE,110,0.0,2.0,86,0.00,,,0.18,WeatherCatV1.11B39,2013-03-08 02:50:00,
2013-03-07 16:55:00,69.9,66.2,29.94,NE,52,0.0,2.0,88,0.00,,,0.18,WeatherCatV1.11B39,2013-03-08 02:55:00,
2013-03-07 17:00:00,70.2,65.8,29.94,ENE,61,0.0,1.0,86,0.00,,,0.18,WeatherCatV1.11B39,2013-03-08 03:00:00,
2013-03-07 17:05:00,70.0,65.6,29.94,NE,41,0.0,1.0,86,0.00,,,0.18,WeatherCatV1.11B39,2013-03-08 03:05:00,
2013-03-07 17:10:00,69.8,66.1,29.94,ESE,110,0.0,0.0,88,0.00,,,0.18,WeatherCatV1.11B39,2013-03-08 03:10:00,
2013-03-07 17:15:00,69.9,65.8,29.94,ESE,109,0.0,1.0,87,0.00,,,0.18,WeatherCatV1.11B39,2013-03-08 03:15:00,
2013-03-07 17:20:00,69.5,65.5,29.94,East,96,0.0,2.0,87,0.00,,,0.18,WeatherCatV1.11B39,2013-03-08 03:20:00,
2013-03-07 17:25:00,69.4,66.0,29.94,SE,124,0.0,1.0,89,0.00,,,0.18,WeatherCatV1.11B39,2013-03-08 03:25:00,
2013-03-07 17:30:00,69.4,65.7,29.95,East,94,1.0,1.0,88,0.00,,,0.18,WeatherCatV1.11B39,2013-03-08 03:30:00,
2013-03-07 17:35:00,69.2,65.5,29.94,ENE,69,0.0,1.0,88,0.00,,,0.18,WeatherCatV1.11B39,2013-03-08 03:35:00,
2013-03-07 17:40:00,69.2,65.8,29.94,ENE,69,0.0,0.0,89,0.00,,,0.18,WeatherCatV1.11B39,2013-03-08 03:40:00,
2013-03-07 17:45:00,69.2,65.8,29.94,ENE,69,0.0,1.0,89,0.00,,,0.18,WeatherCatV1.11B39,2013-03-08 03:45:00,
2013-03-07 17:50:00,69.2,66.1,29.94,ENE,72,0.0,0.0,90,0.00,,,0.18,WeatherCatV1.11B39,2013-03-08 03:50:00,
2013-03-07 17:55:00,69.2,66.1,29.94,East,96,0.0,0.0,90,0.00,,,0.18,WeatherCatV1.11B39,2013-03-08 03:55:00,
2013-03-07 18:00:00,69.2,66.5,29.94,East,96,0.0,0.0,91,0.00,,,0.18,WeatherCatV1.11B39,2013-03-08 04:00:00,
2013-03-07 18:05:00,69.3,66.2,29.94,East,96,0.0,0.0,90,0.00,,,0.18,WeatherCatV1.11B39,2013-03-08 04:05:00,
2013-03-07 18:10:00,69.6,66.8,29.94,East,96,0.0,0.0,91,0.00,,,0.18,WeatherCatV1.11B39,2013-03-08 04:10:00,
2013-03-07 18:15:00,69.7,66.6,29.94,East,96,0.0,0.0,90,0.00,,,0.18,WeatherCatV1.11B39,2013-03-08 04:15:00,
2013-03-07 18:20:00,69.8,66.4,29.94,East,96,0.0,0.0,89,0.00,,,0.18,WeatherCatV1.11B39,2013-03-08 04:20:00,
2013-03-07 18:25:00,69.7,66.3,29.94,East,96,0.0,0.0,89,0.00,,,0.18,WeatherCatV1.11B39,2013-03-08 04:25:00,
2013-03-07 18:30:00,69.3,65.6,29.95,East,96,0.0,0.0,88,0.00,,,0.18,WeatherCatV1.11B39,2013-03-08 04:30:00,
2013-03-07 18:35:00,69.1,65.7,29.95,East,96,0.0,0.0,89,0.00,,,0.18,WeatherCatV1.11B39,2013-03-08 04:35:00,
2013-03-07 18:40:00,68.8,65.7,29.95,East,96,0.0,0.0,90,0.00,,,0.18,WeatherCatV1.11B39,2013-03-08 04:40:00,
2013-03-07 18:45:00,68.4,65.7,29.95,East,96,0.0,0.0,91,0.00,,,0.18,WeatherCatV1.11B39,2013-03-08 04:45:00,
2013-03-07 18:50:00,68.1,65.4,29.95,East,96,0.0,0.0,91,0.00,,,0.18,WeatherCatV1.11B39,2013-03-08 04:50:00,
2013-03-07 18:55:00,67.9,65.5,29.96,East,96,0.0,0.0,92,0.00,,,0.18,WeatherCatV1.11B39,2013-03-08 04:55:00,
2013-03-07 19:00:00,67.7,65.3,29.95,East,96,0.0,0.0,92,0.00,,,0.18,WeatherCatV1.11B39,2013-03-08 05:00:00,
2013-03-07 19:05:00,67.5,65.4,29.96,East,96,0.0,0.0,93,0.00,,,0.18,WeatherCatV1.11B39,2013-03-08 05:05:00,
2013-03-07 19:10:00,67.4,65.6,29.96,East,96,0.0,0.0,94,0.00,,,0.18,WeatherCatV1.11B39,2013-03-08 05:10:00,
2013-03-07 19:15:00,67.2,65.4,29.96,East,96,0.0,0.0,94,0.00,,,0.18,WeatherCatV1.11B39,2013-03-08 05:15:00,
2013-03-07 19:20:00,67.0,65.2,29.96,East,96,0.0,0.0,94,0.00,,,0.18,WeatherCatV1.11B39,2013-03-08 05:20:00,
2013-03-07 19:25:00,66.7,64.6,29.96,East,96,0.0,0.0,93,0.00,,,0.18,WeatherCatV1.11B39,2013-03-08 05:25:00,
2013-03-07 19:30:00,66.2,64.1,29.96,East,96,0.0,0.0,93,0.00,,,0.18,WeatherCatV1.11B39,2013-03-08 05:30:00,
2013-03-07 19:35:00,65.7,63.9,29.96,East,96,0.0,0.0,94,0.00,,,0.18,WeatherCatV1.11B39,2013-03-08 05:35:00,
2013-03-07 19:40:00,65.4,63.6,29.96,East,96,0.0,0.0,94,0.00,,,0.18,WeatherCatV1.11B39,2013-03-08 05:40:00,
2013-03-07 19:45:00,65.1,63.3,29.96,East,96,0.0,0.0,94,0.00,,,0.18,WeatherCatV1.11B39,2013-03-08 05:45:00,
2013-03-07 19:50:00,64.7,62.9,29.97,East,96,0.0,0.0,94,0.00,,,0.18,WeatherCatV1.11B39,2013-03-08 05:50:00,
2013-03-07 19:55:00,64.5,62.7,29.97,East,96,0.0,0.0,94,0.00,,,0.18,WeatherCatV1.11B39,2013-03-08 05:55:00,
2013-03-07 20:00:00,64.2,62.7,29.97,East,96,0.0,0.0,95,0.00,,,0.18,WeatherCatV1.11B39,2013-03-08 06:00:00,
2013-03-07 20:05:00,64.2,62.7,29.97,East,96,0.0,0.0,95,0.00,,,0.18,WeatherCatV1.11B39,2013-03-08 06:05:00,
2013-03-07 20:10:00,64.1,62.6,29.97,East,96,0.0,0.0,95,0.00,,,0.18,WeatherCatV1.11B39,2013-03-08 06:10:00,
2013-03-07 20:15:00,63.9,62.4,29.97,East,98,0.0,0.0,95,0.00,,,0.18,WeatherCatV1.11B39,2013-03-08 06:15:00,
2013-03-07 20:20:00,63.8,62.3,29.97,ESE,103,0.0,0.0,95,0.00,,,0.18,WeatherCatV1.11B39,2013-03-08 06:20:00,
2013-03-07 20:25:00,63.5,62.0,29.97,ESE,103,0.0,0.0,95,0.00,,,0.18,WeatherCatV1.11B39,2013-03-08 06:25:00,
2013-03-07 20:30:00,63.1,61.6,29.97,ESE,103,0.0,0.0,95,0.00,,,0.18,WeatherCatV1.11B39,2013-03-08 06:30:00,
2013-03-07 20:35:00,62.9,61.4,29.97,ESE,103,0.0,0.0,95,0.00,,,0.18,WeatherCatV1.11B39,2013-03-08 06:35:00,
2013-03-07 20:40:00,62.7,61.2,29.97,ESE,103,0.0,0.0,95,0.00,,,0.18,WeatherCatV1.11B39,2013-03-08 06:40:00,
2013-03-07 20:45:00,62.6,61.1,29.97,ESE,118,0.0,0.0,95,0.00,,,0.18,WeatherCatV1.11B39,2013-03-08 06:45:00,
2013-03-07 20:50:00,62.6,61.1,29.98,SW,221,0.0,0.0,95,0.00,,,0.18,WeatherCatV1.11B39,2013-03-08 06:50:00,
2013-03-07 20:55:00,62.6,61.1,29.98,SW,221,0.0,0.0,95,0.00,,,0.18,WeatherCatV1.11B39,2013-03-08 06:55:00,
2013-03-07 21:00:00,62.4,60.9,29.98,SW,221,0.0,0.0,95,0.00,,,0.18,WeatherCatV1.11B39,2013-03-08 07:00:00,
2013-03-07 21:05:00,62.4,60.9,29.98,SW,221,0.0,0.0,95,0.00,,,0.18,WeatherCatV1.11B39,2013-03-08 07:05:00,
2013-03-07 21:10:00,62.2,60.7,29.98,SW,221,0.0,0.0,95,0.00,,,0.18,WeatherCatV1.11B39,2013-03-08 07:10:00,
2013-03-07 21:15:00,62.2,60.7,29.98,SW,221,0.0,0.0,95,0.00,,,0.18,WeatherCatV1.11B39,2013-03-08 07:15:00,
2013-03-07 21:20:00,62.1,60.6,29.98,SW,221,0.0,0.0,95,0.00,,,0.18,WeatherCatV1.11B39,2013-03-08 07:20:00,
2013-03-07 21:25:00,62.1,60.6,29.98,SW,222,0.0,0.0,95,0.00,,,0.18,WeatherCatV1.11B39,2013-03-08 07:25:00,
2013-03-07 21:30:00,62.1,60.6,29.98,SW,222,0.0,0.0,95,0.00,,,0.18,WeatherCatV1.11B39,2013-03-08 07:30:00,
2013-03-07 21:35:00,61.7,60.0,29.98,SW,222,0.0,0.0,94,0.00,,,0.18,WeatherCatV1.11B39,2013-03-08 07:35:00,
2013-03-07 21:40:00,61.4,60.0,29.98,SW,222,0.0,0.0,95,0.00,,,0.18,WeatherCatV1.11B39,2013-03-08 07:40:00,
2013-03-07 21:45:00,61.3,59.9,29.98,SW,221,0.0,0.0,95,0.00,,,0.18,WeatherCatV1.11B39,2013-03-08 07:45:00,
2013-03-07 21:50:00,61.2,59.8,29.98,SW,221,0.0,1.0,95,0.00,,,0.18,WeatherCatV1.11B39,2013-03-08 07:50:00,
2013-03-07 21:55:00,61.3,60.1,29.98,SW,220,0.0,1.0,96,0.00,,,0.18,WeatherCatV1.11B39,2013-03-08 07:55:00,
2013-03-07 22:00:00,61.6,60.2,29.98,SW,221,0.0,1.0,95,0.00,,,0.18,WeatherCatV1.11B39,2013-03-08 08:00:00,
2013-03-07 22:05:00,61.6,59.9,29.98,SW,220,0.0,0.0,94,0.00,,,0.18,WeatherCatV1.11B39,2013-03-08 08:05:00,
2013-03-07 22:10:00,61.4,59.7,29.98,SW,220,0.0,0.0,94,0.00,,,0.18,WeatherCatV1.11B39,2013-03-08 08:10:00,
2013-03-07 22:15:00,61.1,59.4,29.98,SW,220,0.0,1.0,94,0.00,,,0.18,WeatherCatV1.11B39,2013-03-08 08:15:00,
2013-03-07 22:20:00,61.3,59.9,29.98,SW,220,0.0,1.0,95,0.00,,,0.18,WeatherCatV1.11B39,2013-03-08 08:20:00,
2013-03-07 22:25:00,61.2,59.5,29.98,SW,220,0.0,0.0,94,0.00,,,0.18,WeatherCatV1.11B39,2013-03-08 08:25:00,
2013-03-07 22:30:00,60.8,59.1,29.98,SW,220,0.0,1.0,94,0.00,,,0.18,WeatherCatV1.11B39,2013-03-08 08:30:00,
2013-03-07 22:35:00,60.6,59.2,29.98,SW,220,0.0,1.0,95,0.00,,,0.18,WeatherCatV1.11B39,2013-03-08 08:35:00,
2013-03-07 22:40:00,60.4,59.0,29.98,SW,219,0.0,0.0,95,0.00,,,0.18,WeatherCatV1.11B39,2013-03-08 08:40:00,
2013-03-07 22:45:00,60.5,59.4,29.97,SW,220,0.0,1.0,96,0.00,,,0.18,WeatherCatV1.11B39,2013-03-08 08:45:00,
2013-03-07 22:50:00,61.0,59.8,29.97,SSW,210,0.0,0.0,96,0.00,,,0.18,WeatherCatV1.11B39,2013-03-08 08:50:00,
2013-03-07 22:55:00,61.3,59.9,29.97,SSW,210,0.0,1.0,95,0.00,,,0.18,WeatherCatV1.11B39,2013-03-08 08:55:00,
2013-03-07 23:00:00,60.8,59.1,29.97,SE,135,0.0,0.0,94,0.00,,,0.18,WeatherCatV1.11B39,2013-03-08 09:00:00,
2013-03-07 23:05:00,60.3,58.9,29.97,SE,135,0.0,1.0,95,0.00,,,0.18,WeatherCatV1.11B39,2013-03-08 09:05:00,
2013-03-07 23:10:00,60.0,58.6,29.97,SE,135,0.0,0.0,95,0.00,,,0.18,WeatherCatV1.11B39,2013-03-08 09:10:00,
2013-03-07 23:15:00,60.0,58.9,29.97,SE,135,0.0,1.0,96,0.00,,,0.18,WeatherCatV1.11B39,2013-03-08 09:15:00,
2013-03-07 23:20:00,59.9,58.8,29.97,SE,135,0.0,0.0,96,0.00,,,0.18,WeatherCatV1.11B39,2013-03-08 09:20:00,
2013-03-07 23:25:00,59.8,58.7,29.97,SE,135,0.0,0.0,96,0.00,,,0.18,WeatherCatV1.11B39,2013-03-08 09:25:00,
2013-03-07 23:30:00,59.8,58.7,29.96,SE,135,0.0,0.0,96,0.00,,,0.18,WeatherCatV1.11B39,2013-03-08 09:30:00,
2013-03-07 23:35:00,60.1,59.0,29.96,SE,136,0.0,1.0,96,0.00,,,0.18,WeatherCatV1.11B39,2013-03-08 09:35:00,
2013-03-07 23:40:00,60.0,58.9,29.96,SE,135,0.0,0.0,96,0.00,,,0.18,WeatherCatV1.11B39,2013-03-08 09:40:00,
2013-03-07 23:45:00,59.9,58.8,29.96,SE,136,0.0,1.0,96,0.00,,,0.18,WeatherCatV1.11B39,2013-03-08 09:45:00,
2013-03-07 23:50:00,59.7,58.6,29.96,SE,136,0.0,1.0,96,0.00,,,0.18,WeatherCatV1.11B39,2013-03-08 09:50:00,
2013-03-07 23:55:00,59.5,58.4,29.95,SE,136,0.0,0.0,96,0.00,,,0.18,WeatherCatV1.11B39,2013-03-08 09:55:00,